createdAt,value
2022-08-07T00:01:43.828Z,98697.34
2022-08-07T00:04:51.481Z,98688.91
2022-08-07T00:07:59.757Z,98699.41
2022-08-07T00:11:04.879Z,98709.34
2022-08-07T00:14:11.451Z,98704.66
2022-08-07T00:17:16.615Z,98691.69
2022-08-07T00:20:29.736Z,98694.75
2022-08-07T00:23:42.284Z,98629.66
2022-08-07T00:26:58.970Z,98700.19
2022-08-07T00:30:27.708Z,98705.59
2022-08-07T00:33:32.778Z,98703.84
2022-08-07T00:36:38.644Z,98701.41
2022-08-07T00:39:54.277Z,98701.47
2022-08-07T00:42:58.137Z,98704.78
2022-08-07T00:46:04.493Z,98696.63
2022-08-07T00:49:11.669Z,98700.75
2022-08-07T00:52:28.882Z,98698.22
2022-08-07T00:56:02.860Z,98698.88
2022-08-07T00:59:00.913Z,98700.06
2022-08-07T01:02:09.030Z,98689.72
2022-08-07T01:05:31.020Z,98703.47
2022-08-07T01:08:51.307Z,98690.22
2022-08-07T01:12:27.804Z,98678.19
2022-08-07T01:15:21.462Z,98691.22
2022-08-07T01:18:29.152Z,98700.19
2022-08-07T01:21:33.981Z,98688.81
2022-08-07T01:24:42.458Z,98690.56
2022-08-07T01:27:51.443Z,98691.06
2022-08-07T01:30:57.314Z,98684.00
2022-08-07T01:34:03.678Z,98677.16
2022-08-07T01:37:17.139Z,98688.78
2022-08-07T01:40:25.949Z,98686.91
2022-08-07T01:43:38.168Z,98698.31
2022-08-07T01:46:43.469Z,98703.06
2022-08-07T01:49:47.841Z,98701.31
2022-08-07T01:53:01.293Z,98700.38
2022-08-07T01:56:14.224Z,98698.59
2022-08-07T01:59:30.957Z,98702.75
2022-08-07T02:03:18.175Z,98699.22
2022-08-07T02:06:31.795Z,98692.78
2022-08-07T02:09:54.724Z,98683.81
2022-08-07T02:13:04.365Z,98662.03
2022-08-07T02:16:28.600Z,98684.13
2022-08-07T02:20:04.109Z,98676.69
2022-08-07T02:23:04.097Z,98679.81
2022-08-07T02:26:32.023Z,98687.94
2022-08-07T02:29:48.780Z,98667.63
2022-08-07T02:33:09.603Z,98677.13
2022-08-07T02:36:30.136Z,98684.94
2022-08-07T02:40:02.305Z,98682.88
2022-08-07T02:43:11.690Z,98678.91
2022-08-07T02:46:19.790Z,98682.72
2022-08-07T02:49:32.796Z,98671.69
2022-08-07T02:53:03.534Z,98664.19
2022-08-07T02:56:21.062Z,98665.38
2022-08-07T02:59:28.489Z,98657.56
2022-08-07T03:02:36.894Z,98660.50
2022-08-07T03:05:47.390Z,98659.56
2022-08-07T03:08:53.100Z,98644.94
2022-08-07T03:11:57.908Z,98638.31
2022-08-07T03:15:12.056Z,98656.28
2022-08-07T03:18:17.639Z,98654.59
2022-08-07T03:21:25.558Z,98651.91
2022-08-07T03:24:30.169Z,98643.44
2022-08-07T03:27:58.803Z,98612.72
2022-08-07T03:34:47.562Z,98657.28
2022-08-07T03:38:09.665Z,98662.31
2022-08-07T03:41:18.647Z,98653.56
2022-08-07T03:44:42.836Z,98658.31
2022-08-07T03:47:52.005Z,98643.09
2022-08-07T03:50:59.416Z,98656.34
2022-08-07T03:54:35.624Z,98663.88
2022-08-07T03:58:08.729Z,98665.69
2022-08-07T04:00:59.719Z,98661.56
2022-08-07T04:04:05.710Z,98668.50
2022-08-07T04:07:17.523Z,98648.34
2022-08-07T04:10:23.489Z,98671.47
2022-08-07T04:13:28.659Z,98671.31
2022-08-07T04:16:58.728Z,98676.25
2022-08-07T04:20:03.474Z,98675.66
2022-08-07T04:23:19.461Z,98670.63
2022-08-07T04:26:25.090Z,98678.06
2022-08-07T04:29:48.668Z,98678.91
2022-08-07T04:32:58.069Z,98681.09
2022-08-07T04:36:06.620Z,98691.00
2022-08-07T04:39:12.234Z,98684.97
2022-08-07T04:42:16.284Z,98689.59
2022-08-07T04:45:22.870Z,98690.56
2022-08-07T04:48:55.446Z,98694.09
2022-08-07T04:52:10.206Z,98686.31
2022-08-07T04:58:14.421Z,98570.00
2022-08-07T04:59:18.325Z,98690.53
2022-08-07T05:02:25.216Z,98679.03
2022-08-07T05:05:53.974Z,98688.41
2022-08-07T05:09:02.673Z,98696.19
2022-08-07T05:12:27.055Z,98691.25
2022-08-07T05:15:39.490Z,98677.59
2022-08-07T05:18:52.149Z,98697.97
2022-08-07T05:22:01.807Z,98680.88
2022-08-07T05:25:26.250Z,98674.25
2022-08-07T05:28:40.592Z,98679.09
2022-08-07T05:31:52.781Z,98671.91
2022-08-07T05:35:03.447Z,98682.97
2022-08-07T05:38:10.014Z,98681.09
2022-08-07T05:41:16.933Z,98680.34
2022-08-07T05:44:29.315Z,98690.06
2022-08-07T05:47:38.539Z,98676.31
2022-08-07T05:51:03.389Z,98693.22
2022-08-07T05:54:29.906Z,98692.34
2022-08-07T05:57:34.424Z,98688.50
2022-08-07T06:00:41.039Z,98691.03
2022-08-07T06:03:58.577Z,98688.03
2022-08-07T06:07:09.484Z,98690.69
2022-08-07T06:10:28.834Z,98692.34
2022-08-07T06:14:13.032Z,98691.72
2022-08-07T06:16:59.192Z,98685.19
2022-08-07T06:20:25.231Z,98685.19
2022-08-07T06:24:38.509Z,98686.13
2022-08-07T06:27:03.501Z,98682.00
2022-08-07T06:30:24.264Z,98678.34
2022-08-07T06:33:34.852Z,98692.25
2022-08-07T06:36:38.217Z,98687.22
2022-08-07T06:40:16.463Z,98679.16
2022-08-07T06:43:21.372Z,98691.63
2022-08-07T06:46:35.255Z,98691.53
2022-08-07T06:49:52.430Z,98683.88
2022-08-07T06:53:49.135Z,98689.59
2022-08-07T06:56:49.534Z,98689.69
2022-08-07T07:00:13.246Z,98689.53
2022-08-07T07:03:39.872Z,98686.84
2022-08-07T07:07:00.733Z,98684.06
2022-08-07T07:10:05.538Z,98681.00
2022-08-07T07:13:13.397Z,98690.38
2022-08-07T07:16:21.411Z,98680.78
2022-08-07T07:19:57.858Z,98661.06
2022-08-07T07:24:05.957Z,98679.81
2022-08-07T07:26:34.728Z,98679.75
2022-08-07T07:30:08.881Z,98671.75
2022-08-07T07:33:11.841Z,98670.06
2022-08-07T07:36:17.182Z,98661.28
2022-08-07T07:39:25.693Z,98655.91
2022-08-07T07:42:39.692Z,98648.81
2022-08-07T07:46:53.334Z,98657.56
2022-08-07T07:50:35.391Z,98652.34
2022-08-07T07:52:35.885Z,98657.09
2022-08-07T07:55:45.327Z,98652.22
2022-08-07T07:59:01.525Z,98651.06
2022-08-07T08:02:10.516Z,98655.81
2022-08-07T08:05:17.570Z,98641.91
2022-08-07T08:08:35.527Z,98641.34
2022-08-07T08:11:59.365Z,98643.81
2022-08-07T08:15:06.963Z,98637.75
2022-08-07T08:18:17.860Z,98631.78
2022-08-07T08:21:55.498Z,98641.06
2022-08-07T08:25:42.296Z,98623.56
2022-08-07T08:28:49.207Z,98629.75
2022-08-07T08:31:59.075Z,98647.81
2022-08-07T08:35:23.129Z,98638.63
2022-08-07T08:38:40.568Z,98633.16
2022-08-07T08:41:58.137Z,98644.09
2022-08-07T08:45:13.970Z,98630.97
2022-08-07T08:48:28.540Z,98625.47
2022-08-07T08:51:49.432Z,98625.63
2022-08-07T08:55:21.044Z,98624.50
2022-08-07T08:58:50.433Z,98613.63
2022-08-07T09:02:08.980Z,98618.69
2022-08-07T09:05:37.214Z,98614.41
2022-08-07T09:08:48.910Z,98605.59
2022-08-07T09:12:31.413Z,98610.47
2022-08-07T09:16:23.468Z,98614.19
2022-08-07T09:19:50.899Z,98613.50
2022-08-07T09:24:31.771Z,98612.06
2022-08-07T09:26:24.003Z,98616.03
2022-08-07T09:30:04.272Z,98608.75
2022-08-07T09:34:53.610Z,98606.47
2022-08-07T09:38:10.567Z,98605.69
2022-08-07T09:41:25.039Z,98599.69
2022-08-07T09:47:25.529Z,98605.44
2022-08-07T09:48:19.084Z,98601.72
2022-08-07T09:52:09.787Z,98595.03
2022-08-07T09:55:28.720Z,98590.63
2022-08-07T09:59:14.506Z,98582.13
2022-08-07T10:02:36.616Z,98589.53
2022-08-07T10:06:12.210Z,98583.03
2022-08-07T10:09:42.870Z,98588.28
2022-08-07T10:14:00.510Z,98579.72
2022-08-07T10:17:16.509Z,98569.22
2022-08-07T10:20:30.545Z,98561.59
2022-08-07T10:24:04.746Z,98570.03
2022-08-07T10:27:46.534Z,98548.59
2022-08-07T10:30:56.252Z,98542.13
2022-08-07T10:34:18.135Z,98540.19
2022-08-07T10:38:00.449Z,98547.22
2022-08-07T10:41:10.817Z,98513.06
2022-08-07T10:44:37.404Z,98527.50
2022-08-07T10:47:52.949Z,98530.94
2022-08-07T10:51:01.253Z,98522.06
2022-08-07T10:54:14.191Z,98528.28
2022-08-07T10:57:34.546Z,98522.69
2022-08-07T11:00:50.557Z,98501.06
2022-08-07T11:04:31.451Z,98533.28
2022-08-07T11:07:59.683Z,98522.63
2022-08-07T11:11:15.225Z,98515.41
2022-08-07T11:14:45.255Z,98502.97
2022-08-07T11:18:03.349Z,98506.81
2022-08-07T11:21:14.078Z,98501.25
2022-08-07T11:24:25.531Z,98505.31
2022-08-07T11:28:02.821Z,98485.59
2022-08-07T11:31:11.392Z,98496.69
2022-08-07T11:34:23.335Z,98494.53
2022-08-07T11:37:58.271Z,98484.13
2022-08-07T11:41:22.251Z,98494.91
2022-08-07T11:44:52.792Z,98477.81
2022-08-07T11:48:29.460Z,98478.69
2022-08-07T11:51:53.615Z,98425.78
2022-08-07T11:55:09.055Z,98468.19
2022-08-07T11:58:33.515Z,98470.47
2022-08-07T12:02:00.569Z,98474.94
2022-08-07T12:05:28.230Z,98473.03
2022-08-07T12:08:38.352Z,98472.78
2022-08-07T12:12:09.201Z,98464.69
2022-08-07T12:15:17.325Z,98464.28
2022-08-07T12:18:50.632Z,98469.00
2022-08-07T12:22:39.290Z,98462.16
2022-08-07T12:26:06.082Z,98470.75
2022-08-07T12:29:38.116Z,98450.63
2022-08-07T12:32:49.189Z,98446.31
2022-08-07T12:35:58.222Z,98442.75
2022-08-07T12:39:09.208Z,98456.34
2022-08-07T12:42:32.332Z,98457.66
2022-08-07T12:45:52.326Z,98443.69
2022-08-07T12:49:09.779Z,98441.22
2022-08-07T12:52:37.441Z,98436.09
2022-08-07T12:56:03.297Z,98442.53
2022-08-07T12:59:09.595Z,98427.66
2022-08-07T13:03:00.977Z,98427.13
2022-08-07T13:06:27.122Z,98418.22
2022-08-07T13:10:28.873Z,98421.97
2022-08-07T13:13:46.834Z,98416.78
2022-08-07T13:17:01.053Z,98409.53
2022-08-07T13:20:10.670Z,98406.44
2022-08-07T13:24:00.663Z,98400.94
2022-08-07T13:26:47.342Z,98376.03
2022-08-07T13:30:04.507Z,98381.25
2022-08-07T13:34:33.354Z,98381.50
2022-08-07T13:36:48.375Z,98388.72
2022-08-07T13:40:36.459Z,98391.00
2022-08-07T13:43:29.241Z,98396.03
2022-08-07T13:46:49.331Z,98370.69
2022-08-07T13:50:33.063Z,98374.75
2022-08-07T13:53:24.661Z,98365.53
2022-08-07T13:56:35.547Z,98375.13
2022-08-07T13:59:48.318Z,98370.47
2022-08-07T14:03:05.869Z,98364.00
2022-08-07T14:06:16.602Z,98366.97
2022-08-07T14:10:12.632Z,98366.41
2022-08-07T14:12:55.580Z,98359.44
2022-08-07T14:16:04.245Z,98353.78
2022-08-07T14:20:39.101Z,98346.72
2022-08-07T14:22:42.880Z,98349.50
2022-08-07T14:25:59.284Z,98339.09
2022-08-07T14:29:08.843Z,98297.84
2022-08-07T14:32:29.873Z,98347.88
2022-08-07T14:35:45.738Z,98348.56
2022-08-07T14:38:53.573Z,98344.25
2022-08-07T14:42:19.699Z,98333.16
2022-08-07T14:48:53.959Z,98329.44
2022-08-07T14:52:02.931Z,98312.47
2022-08-07T14:55:17.765Z,98328.78
2022-08-07T14:58:25.695Z,98324.31
2022-08-07T15:01:42.537Z,98331.44
2022-08-07T15:04:54.553Z,98320.97
2022-08-07T15:07:59.395Z,98318.31
2022-08-07T15:11:09.700Z,98313.25
2022-08-07T15:17:57.578Z,98316.66
2022-08-07T15:21:08.245Z,98315.94
2022-08-07T15:25:12.961Z,98312.63
2022-08-07T15:28:32.399Z,98304.38
2022-08-07T15:34:50.758Z,98301.31
2022-08-07T15:38:17.337Z,98292.84
2022-08-07T15:42:42.533Z,98305.16
2022-08-07T15:44:53.852Z,98298.28
2022-08-07T15:48:01.909Z,98293.31
2022-08-07T15:51:09.997Z,98297.00
2022-08-07T15:54:17.121Z,98299.38
2022-08-07T15:57:39.866Z,98264.50
2022-08-07T16:00:53.717Z,98287.59
2022-08-07T16:04:00.808Z,98292.91
2022-08-07T16:08:29.131Z,98283.06
2022-08-07T16:10:33.100Z,98287.91
2022-08-07T16:14:10.421Z,98294.38
2022-08-07T16:18:02.216Z,98286.53
2022-08-07T16:21:57.028Z,98279.75
2022-08-07T16:24:34.177Z,98254.84
2022-08-07T16:27:48.299Z,98276.72
2022-08-07T16:31:10.007Z,98257.47
2022-08-07T16:34:24.127Z,98272.59
2022-08-07T16:38:06.117Z,98253.69
2022-08-07T16:41:41.694Z,98273.97
2022-08-07T16:45:15.487Z,98275.91
2022-08-07T16:50:20.672Z,98271.78
2022-08-07T16:52:52.675Z,98268.25
2022-08-07T16:56:06.641Z,98264.44
2022-08-07T16:59:25.744Z,98264.13
2022-08-07T17:03:57.722Z,98265.13
2022-08-07T17:07:02.880Z,98252.81
2022-08-07T17:10:32.318Z,98265.41
2022-08-07T17:14:18.543Z,98241.19
2022-08-07T17:17:44.303Z,98259.81
2022-08-07T17:20:53.904Z,98267.91
2022-08-07T17:24:17.898Z,98266.50
2022-08-07T17:27:37.845Z,98255.69
2022-08-07T17:31:16.043Z,98266.34
2022-08-07T17:34:34.671Z,98262.66
2022-08-07T17:38:05.522Z,98260.34
2022-08-07T17:42:02.580Z,98266.09
2022-08-07T17:44:58.736Z,98268.53
2022-08-07T17:48:06.681Z,98266.63
2022-08-07T17:51:23.041Z,98264.09
2022-08-07T17:54:53.210Z,98275.00
2022-08-07T17:58:04.229Z,98274.56
2022-08-07T18:01:20.728Z,98270.06
2022-08-07T18:04:34.834Z,98251.34
2022-08-07T18:07:43.899Z,98279.56
2022-08-07T18:12:08.365Z,98281.84
2022-08-07T18:14:25.141Z,98284.94
2022-08-07T18:18:46.694Z,98280.19
2022-08-07T18:21:38.186Z,98284.09
2022-08-07T18:24:34.509Z,98285.09
2022-08-07T18:28:00.317Z,98285.81
2022-08-07T18:31:08.467Z,98289.81
2022-08-07T18:34:37.036Z,98283.00
2022-08-07T18:38:58.483Z,98286.41
2022-08-07T18:41:44.675Z,98295.16
2022-08-07T18:45:44.657Z,98275.88
2022-08-07T18:50:05.111Z,98285.22
2022-08-07T18:52:38.150Z,98303.44
2022-08-07T18:55:55.789Z,98310.72
2022-08-07T18:59:47.808Z,98310.63
2022-08-07T19:02:52.643Z,98310.78
2022-08-07T19:06:16.323Z,98323.13
2022-08-07T19:09:55.811Z,98318.69
2022-08-07T19:13:10.437Z,98337.06
2022-08-07T19:17:01.014Z,98349.53
2022-08-07T19:20:05.553Z,98349.94
2022-08-07T19:23:19.422Z,98354.69
2022-08-07T19:27:02.029Z,98360.81
2022-08-07T19:30:55.871Z,98364.56
2022-08-07T19:33:42.075Z,98368.44
2022-08-07T19:36:52.246Z,98365.78
2022-08-07T19:40:01.547Z,98370.31
2022-08-07T19:43:21.511Z,98346.72
2022-08-07T19:46:32.366Z,98359.94
2022-08-07T19:49:56.482Z,98371.75
2022-08-07T19:54:35.262Z,98378.66
2022-08-07T19:58:00.224Z,98375.97
2022-08-07T19:59:57.278Z,98381.06
2022-08-07T20:03:02.857Z,98372.63
2022-08-07T20:06:15.373Z,98385.66
2022-08-07T20:10:33.931Z,98388.38
2022-08-07T20:12:59.399Z,98380.88
2022-08-07T20:16:06.683Z,98368.97
2022-08-07T20:19:22.984Z,98378.56
2022-08-07T20:22:34.049Z,98376.06
2022-08-07T20:25:50.744Z,98373.31
2022-08-07T20:28:57.936Z,98383.22
2022-08-07T20:32:03.903Z,98380.72
2022-08-07T20:35:11.325Z,98384.81
2022-08-07T20:38:23.222Z,98385.53
2022-08-07T20:41:34.094Z,98383.09
2022-08-07T20:44:45.403Z,98396.56
2022-08-07T20:47:58.177Z,98391.78
2022-08-07T20:51:04.723Z,98374.94
2022-08-07T20:54:29.363Z,98398.50
2022-08-07T20:57:47.367Z,98399.78
2022-08-07T21:00:56.125Z,98401.06
2022-08-07T21:04:21.873Z,98402.25
2022-08-07T21:07:28.230Z,98400.81
2022-08-07T21:10:37.298Z,98395.38
2022-08-07T21:14:16.679Z,98383.53
2022-08-07T21:18:03.949Z,98402.88
2022-08-07T21:20:36.573Z,98396.81
2022-08-07T21:23:50.577Z,98401.31
2022-08-07T21:27:01.970Z,98403.63
2022-08-07T21:30:14.337Z,98402.81
2022-08-07T21:34:48.513Z,98405.56
2022-08-07T21:38:13.265Z,98391.50
2022-08-07T21:41:38.301Z,98389.41
2022-08-07T21:45:41.992Z,98402.53
2022-08-07T21:48:41.242Z,98392.44
2022-08-07T21:52:04.262Z,98387.31
2022-08-07T21:55:28.386Z,98397.03
2022-08-07T21:58:45.862Z,98399.59
2022-08-07T22:02:10.449Z,98378.66
2022-08-07T22:05:43.838Z,98411.88
2022-08-07T22:08:53.788Z,98406.69
2022-08-07T22:12:07.311Z,98403.56
2022-08-07T22:16:39.329Z,98396.34
2022-08-07T22:18:45.615Z,98403.09
2022-08-07T22:22:02.836Z,98398.50
2022-08-07T22:25:26.352Z,98408.09
2022-08-07T22:28:37.599Z,98406.56
2022-08-07T22:32:05.572Z,98415.31
2022-08-07T22:35:11.075Z,98415.31
2022-08-07T22:38:29.759Z,98388.28
2022-08-07T22:42:03.061Z,98406.38
2022-08-07T22:46:04.215Z,98406.44
2022-08-07T22:48:56.329Z,98418.19
2022-08-07T22:52:19.564Z,98353.94
2022-08-07T22:55:59.600Z,98424.22
2022-08-07T22:59:37.283Z,98429.59
2022-08-07T23:03:00.582Z,98439.47
2022-08-07T23:06:24.030Z,98443.41
2022-08-07T23:10:06.104Z,98439.94
2022-08-07T23:13:18.733Z,98427.38
2022-08-07T23:16:46.911Z,98383.94
2022-08-07T23:20:51.038Z,98443.16
2022-08-07T23:24:21.117Z,98419.97
2022-08-07T23:28:20.429Z,98434.69
2022-08-07T23:31:18.762Z,98440.03
2022-08-07T23:35:08.505Z,98452.91
2022-08-07T23:38:42.887Z,98450.41
2022-08-07T23:42:04.483Z,98430.06
2022-08-07T23:45:43.513Z,98428.59
2022-08-07T23:49:15.365Z,98458.25
2022-08-07T23:53:00.214Z,98457.91
2022-08-07T23:55:57.746Z,98456.88
